Time;durP1;ratioP1;P1;durP2;ratioP2;P2;SDS_P1;SDS_P2;PMS_P1;PMS_P2;Temp;Humidity;BMP_temperature;BMP_pressure;BME280_temperature;BME280_humidity;BME280_pressure;Samples;Min_cycle;Max_cycle;Signal;HPM_P1;HPM_P2
2021/11/29 00:01:27;;;;;;;8.93;1.90;;;;;;;-145.18;100.00;60484.78;5042381;28;20033;-68
2021/11/29 00:03:53;;;;;;;4.73;1.37;;;;;;;-145.18;100.00;60484.78;5041739;28;20049;-68
2021/11/29 00:06:18;;;;;;;7.40;1.70;;;;;;;-145.18;100.00;60484.78;5041377;28;20376;-68
2021/11/29 00:08:45;;;;;;;5.77;1.90;;;;;;;-145.18;100.00;60484.78;5041985;28;20036;-68
2021/11/29 00:11:12;;;;;;;3.77;1.40;;;;;;;-145.18;100.00;60484.78;5042148;28;20033;-68
2021/11/29 00:13:37;;;;;;;5.63;1.90;;;;;;;-145.18;100.00;60484.78;5041856;28;20283;-67
2021/11/29 00:16:03;;;;;;;7.80;1.70;;;;;;;-145.18;100.00;60484.78;5041618;28;20293;-68
2021/11/29 00:18:28;;;;;;;4.10;1.60;;;;;;;-145.18;100.00;60484.78;5042357;28;20029;-68
2021/11/29 00:20:54;;;;;;;6.03;2.40;;;;;;;-145.18;100.00;60484.78;5047047;28;20032;-68
2021/11/29 00:23:19;;;;;;;7.10;2.80;;;;;;;-145.18;100.00;60484.78;5043764;28;20160;-68
2021/11/29 00:25:45;;;;;;;5.13;1.97;;;;;;;-145.18;100.00;60484.78;5042553;28;20048;-68
2021/11/29 00:28:12;;;;;;;2.77;1.50;;;;;;;-145.18;100.00;60484.78;5042948;28;20083;-68
2021/11/29 00:30:38;;;;;;;6.47;1.73;;;;;;;-145.18;100.00;60484.78;5040599;28;20283;-68
2021/11/29 00:33:05;;;;;;;5.53;2.00;;;;;;;-145.18;100.00;60484.78;5042297;28;20355;-68
2021/11/29 00:35:30;;;;;;;9.20;1.80;;;;;;;-145.18;100.00;60484.78;5042671;28;20266;-67
2021/11/29 00:37:55;;;;;;;5.37;1.77;;;;;;;-145.18;100.00;60484.78;5041951;28;20288;-68
2021/11/29 00:40:21;;;;;;;7.27;1.70;;;;;;;-145.18;100.00;60484.78;5041135;28;20021;-68
2021/11/29 00:42:46;;;;;;;4.87;1.63;;;;;;;-145.18;100.00;60484.78;5041399;28;20131;-68
2021/11/29 00:45:12;;;;;;;4.43;2.27;;;;;;;-145.18;100.00;60484.78;5042882;28;20028;-68
2021/11/29 00:47:38;;;;;;;5.63;2.13;;;;;;;-145.18;100.00;60484.78;5041742;28;20029;-68
2021/11/29 00:50:06;;;;;;;6.63;1.93;;;;;;;-145.18;100.00;60484.78;5041345;28;20013;-68
2021/11/29 00:52:31;;;;;;;7.87;1.67;;;;;;;-145.18;100.00;60484.78;5039732;28;20363;-68
2021/11/29 00:54:56;;;;;;;3.57;1.73;;;;;;;-145.18;100.00;60484.78;5041693;28;20366;-67
2021/11/29 00:57:22;;;;;;;7.93;1.70;;;;;;;-145.18;100.00;60484.78;5041386;28;20123;-68
2021/11/29 00:59:48;;;;;;;4.57;1.90;;;;;;;-145.18;100.00;60484.78;5042125;28;20045;-68
2021/11/29 01:02:15;;;;;;;7.53;2.20;;;;;;;-145.18;100.00;60484.78;5041009;28;20025;-68
2021/11/29 01:04:41;;;;;;;7.90;2.70;;;;;;;-145.18;100.00;60484.78;5041409;28;20303;-68
2021/11/29 01:07:07;;;;;;;5.97;2.07;;;;;;;-145.18;100.00;60484.78;5041478;28;20306;-67
2021/11/29 01:09:32;;;;;;;7.03;2.40;;;;;;;-145.18;100.00;60484.78;5041406;28;20275;-68
2021/11/29 01:11:58;;;;;;;6.63;2.30;;;;;;;-145.18;100.00;60484.78;5041393;28;20182;-67
2021/11/29 01:14:23;;;;;;;4.33;2.20;;;;;;;-145.18;100.00;60484.78;5039928;28;20021;-68
2021/11/29 01:16:49;;;;;;;5.93;2.53;;;;;;;-145.18;100.00;60484.78;5041815;28;20120;-68
2021/11/29 01:19:14;;;;;;;3.73;2.00;;;;;;;-145.18;100.00;60484.78;5041581;28;20159;-67
2021/11/29 01:21:40;;;;;;;4.47;2.30;;;;;;;-145.18;100.00;60484.78;5041286;28;20021;-67
2021/11/29 01:24:05;;;;;;;4.47;2.03;;;;;;;-145.18;100.00;60484.78;5041367;28;20034;-68
2021/11/29 01:26:30;;;;;;;10.87;2.47;;;;;;;-145.18;100.00;60484.78;5042596;28;20021;-68
2021/11/29 01:28:56;;;;;;;10.70;2.50;;;;;;;-145.18;100.00;60484.78;5038146;28;20025;-68
2021/11/29 01:31:21;;;;;;;4.87;2.20;;;;;;;-145.18;100.00;60484.78;5041491;28;20396;-68
2021/11/29 01:33:47;;;;;;;4.20;2.20;;;;;;;-145.18;100.00;60484.78;5035484;28;20028;-68
2021/11/29 01:36:12;;;;;;;10.97;3.33;;;;;;;-145.18;100.00;60484.78;5041773;28;20036;-68
2021/11/29 01:38:38;;;;;;;6.93;2.30;;;;;;;-145.18;100.00;60484.78;5041168;28;20029;-67
2021/11/29 01:41:04;;;;;;;7.23;2.43;;;;;;;-145.18;100.00;60484.78;5043265;28;20080;-68
2021/11/29 01:43:29;;;;;;;5.40;2.60;;;;;;;-145.18;100.00;60484.78;5040871;28;20288;-67
2021/11/29 01:45:55;;;;;;;10.20;3.00;;;;;;;-145.18;100.00;60484.78;5041185;28;20036;-68
2021/11/29 01:48:24;;;;;;;5.63;2.30;;;;;;;-145.18;100.00;60484.78;5041313;28;20027;-67
2021/11/29 01:50:53;;;;;;;6.60;2.40;;;;;;;-145.18;100.00;60484.78;5045484;28;20263;-68
2021/11/29 01:53:23;;;;;;;6.07;2.40;;;;;;;-145.18;100.00;60484.78;5044546;28;20366;-68
2021/11/29 01:55:50;;;;;;;6.73;2.70;;;;;;;-145.18;100.00;60484.78;5044789;28;20755;-68
2021/11/29 01:58:16;;;;;;;4.00;2.20;;;;;;;-145.18;100.00;60484.78;5040286;28;20291;-68
2021/11/29 02:00:47;;;;;;;4.83;2.30;;;;;;;-145.18;100.00;60484.78;5048477;28;20289;-68
2021/11/29 02:03:13;;;;;;;8.90;3.10;;;;;;;-145.18;100.00;60484.78;5052198;22;20133;-74
2021/11/29 02:05:39;;;;;;;4.87;2.10;;;;;;;-145.18;100.00;60484.78;5042378;28;21319;-75
2021/11/29 02:08:05;;;;;;;7.73;2.70;;;;;;;-145.18;100.00;60484.78;5042149;28;20318;-74
2021/11/29 02:10:31;;;;;;;9.30;3.17;;;;;;;-145.18;100.00;60484.78;5044283;28;20051;-74
2021/11/29 02:12:56;;;;;;;7.27;2.10;;;;;;;-145.18;100.00;60484.78;5047503;28;20025;-75
2021/11/29 02:15:22;;;;;;;8.23;2.53;;;;;;;-145.18;100.00;60484.78;5041831;28;20109;-75
2021/11/29 02:17:48;;;;;;;9.03;2.23;;;;;;;-145.18;100.00;60484.78;5041474;28;20040;-74
2021/11/29 02:20:16;;;;;;;6.67;2.20;;;;;;;-145.18;100.00;60484.78;5041854;28;20036;-76
2021/11/29 02:22:44;;;;;;;7.83;2.20;;;;;;;-145.18;100.00;60484.78;5042048;28;20029;-75
2021/11/29 02:25:15;;;;;;;6.60;2.20;;;;;;;-145.18;100.00;60484.78;5041666;28;20278;-75
2021/11/29 02:27:42;;;;;;;7.07;2.70;;;;;;;-145.18;100.00;60484.78;5041811;28;20347;-74
2021/11/29 02:30:09;;;;;;;10.47;2.30;;;;;;;-145.18;100.00;60484.78;5038738;28;20370;-75
2021/11/29 02:32:35;;;;;;;8.17;2.63;;;;;;;-145.18;100.00;60484.78;5041581;28;20539;-74
2021/11/29 02:35:00;;;;;;;6.83;2.60;;;;;;;-145.18;100.00;60484.78;5041561;28;20842;-74
2021/11/29 02:37:25;;;;;;;9.43;2.23;;;;;;;-145.18;100.00;60484.78;5040884;28;20424;-75
2021/11/29 02:39:51;;;;;;;8.67;2.70;;;;;;;-145.18;100.00;60484.78;5041459;28;20473;-74
2021/11/29 02:42:16;;;;;;;5.73;2.50;;;;;;;-145.18;100.00;60484.78;5041392;28;20056;-75
2021/11/29 02:44:42;;;;;;;8.97;2.60;;;;;;;-145.18;100.00;60484.78;5041637;28;20110;-75
2021/11/29 02:47:08;;;;;;;8.23;2.40;;;;;;;-145.18;100.00;60484.78;5041126;28;20578;-74
2021/11/29 02:49:34;;;;;;;6.20;2.17;;;;;;;-145.18;100.00;60484.78;5041223;28;20020;-74
2021/11/29 02:52:21;;;;;;;5.70;2.30;;;;;;;-145.18;100.00;60484.78;5041026;28;20032;-75
2021/11/29 02:54:46;;;;;;;8.23;2.70;;;;;;;-145.18;100.00;60484.78;5038518;28;20131;-74
2021/11/29 02:57:18;;;;;;;7.03;2.67;;;;;;;-145.18;100.00;60484.78;5039449;28;20413;-74
2021/11/29 02:59:43;;;;;;;6.17;2.27;;;;;;;-145.18;100.00;60484.78;5039200;28;20384;-75
2021/11/29 03:02:13;;;;;;;7.13;2.97;;;;;;;-145.18;100.00;60484.78;5039897;28;20291;-75
2021/11/29 03:04:40;;;;;;;9.67;3.17;;;;;;;-145.18;100.00;60484.78;5041683;28;20520;-74
2021/11/29 03:07:07;;;;;;;6.10;2.33;;;;;;;-145.18;100.00;60484.78;5035941;28;20366;-75
2021/11/29 03:09:33;;;;;;;4.40;2.33;;;;;;;-145.18;100.00;60484.78;5040754;28;20286;-74
2021/11/29 03:12:00;;;;;;;5.20;2.57;;;;;;;-145.18;100.00;60484.78;5036956;28;20337;-74
2021/11/29 03:14:25;;;;;;;10.17;2.60;;;;;;;-145.18;100.00;60484.78;5040827;28;20664;-74
2021/11/29 03:16:54;;;;;;;5.47;2.60;;;;;;;-145.18;100.00;60484.78;5041075;28;20374;-74
2021/11/29 03:19:19;;;;;;;8.50;2.87;;;;;;;-145.18;100.00;60484.78;5039450;28;20025;-74
2021/11/29 03:21:45;;;;;;;10.37;2.73;;;;;;;-145.18;100.00;60484.78;5040262;28;20552;-74
2021/11/29 03:24:10;;;;;;;7.90;2.93;;;;;;;-145.18;100.00;60484.78;5039434;28;20095;-74
2021/11/29 03:26:38;;;;;;;7.27;3.00;;;;;;;-145.18;100.00;60484.78;5040206;28;20060;-74
2021/11/29 03:29:10;;;;;;;9.47;2.93;;;;;;;-145.18;100.00;60484.78;5040259;28;20264;-73
2021/11/29 03:31:36;;;;;;;8.13;2.67;;;;;;;-145.18;100.00;60484.78;5036675;28;20276;-74
2021/11/29 03:34:07;;;;;;;7.70;2.57;;;;;;;-145.18;100.00;60484.78;5038941;28;20029;-75
2021/11/29 03:36:36;;;;;;;9.67;2.93;;;;;;;-145.18;100.00;60484.78;5041829;28;20280;-75
2021/11/29 03:39:06;;;;;;;7.07;2.43;;;;;;;-145.18;100.00;60484.78;5037835;28;20291;-76
2021/11/29 03:41:31;;;;;;;5.93;2.30;;;;;;;-145.18;100.00;60484.78;5039169;28;20409;-76
2021/11/29 03:43:57;;;;;;;6.73;2.90;;;;;;;-145.18;100.00;60484.78;5039505;28;20283;-76
2021/11/29 03:46:22;;;;;;;7.33;2.27;;;;;;;-145.18;100.00;60484.78;5036554;28;20029;-76
2021/11/29 03:48:48;;;;;;;7.07;2.57;;;;;;;-145.18;100.00;60484.78;5039623;28;20109;-75
2021/11/29 03:51:13;;;;;;;7.27;2.60;;;;;;;-145.18;100.00;60484.78;5039394;28;20037;-76
2021/11/29 03:53:39;;;;;;;4.57;2.03;;;;;;;-145.18;100.00;60484.78;5039377;28;20094;-76
2021/11/29 03:56:06;;;;;;;6.77;2.33;;;;;;;-145.18;100.00;60484.78;5038644;28;20025;-75
2021/11/29 03:58:31;;;;;;;5.57;2.20;;;;;;;-145.18;100.00;60484.78;5038947;28;20529;-76
2021/11/29 04:00:57;;;;;;;4.00;2.00;;;;;;;-145.18;100.00;60484.78;5039156;28;20271;-74
2021/11/29 04:03:22;;;;;;;9.53;2.83;;;;;;;-145.18;100.00;60484.78;5039551;28;20044;-75
2021/11/29 04:05:47;;;;;;;9.77;2.90;;;;;;;-145.18;100.00;60484.78;5038641;28;20254;-75
2021/11/29 04:08:13;;;;;;;8.20;2.87;;;;;;;-145.18;100.00;60484.78;5039538;28;20031;-74
2021/11/29 04:10:39;;;;;;;6.70;2.83;;;;;;;-145.18;100.00;60484.78;5039710;28;20097;-74
2021/11/29 04:13:05;;;;;;;10.83;3.07;;;;;;;-145.18;100.00;60484.78;5021126;28;20067;-75
2021/11/29 04:15:30;;;;;;;7.97;3.10;;;;;;;-145.18;100.00;60484.78;5042587;28;20330;-74
2021/11/29 04:17:56;;;;;;;8.53;3.27;;;;;;;-145.18;100.00;60484.78;5039008;28;20048;-75
2021/11/29 04:20:22;;;;;;;7.20;3.10;;;;;;;-145.18;100.00;60484.78;5038905;28;20235;-75
2021/11/29 04:22:47;;;;;;;7.00;2.57;;;;;;;-145.18;100.00;60484.78;5039506;28;20035;-75
2021/11/29 04:25:19;;;;;;;7.93;2.70;;;;;;;-145.18;100.00;60484.78;5039537;28;20028;-74
2021/11/29 04:27:46;;;;;;;9.30;3.55;;;;;;;-145.18;100.00;60484.78;5038347;28;20033;-75
2021/11/29 04:30:17;;;;;;;8.33;3.03;;;;;;;-145.18;100.00;60484.78;5043520;28;20062;-75
2021/11/29 04:32:43;;;;;;;10.87;2.80;;;;;;;-145.18;100.00;60484.78;5039343;28;20275;-75
2021/11/29 04:35:09;;;;;;;6.60;2.30;;;;;;;-145.18;100.00;60484.78;5039757;28;20290;-74
2021/11/29 04:37:35;;;;;;;9.00;3.47;;;;;;;-145.18;100.00;60484.78;5038553;28;20287;-74
2021/11/29 04:40:00;;;;;;;6.57;3.03;;;;;;;-145.18;100.00;60484.78;5035138;28;20274;-74
2021/11/29 04:42:25;;;;;;;10.93;4.30;;;;;;;-145.18;100.00;60484.78;5039418;28;20043;-75
2021/11/29 04:44:51;;;;;;;17.23;3.80;;;;;;;-145.18;100.00;60484.78;5039213;28;20059;-74
2021/11/29 04:47:16;;;;;;;10.53;2.60;;;;;;;-145.18;100.00;60484.78;5018540;28;20021;-74
2021/11/29 04:49:42;;;;;;;10.83;3.53;;;;;;;-145.18;100.00;60484.78;5038605;28;20539;-75
2021/11/29 04:52:07;;;;;;;8.70;3.50;;;;;;;-145.18;100.00;60484.78;5038898;28;20028;-75
2021/11/29 04:54:33;;;;;;;6.47;2.60;;;;;;;-145.18;100.00;60484.78;5038627;28;20032;-74
2021/11/29 04:56:58;;;;;;;14.10;2.60;;;;;;;-145.18;100.00;60484.78;5038488;28;20025;-74
2021/11/29 04:59:24;;;;;;;8.93;3.10;;;;;;;-145.18;100.00;60484.78;5037660;28;20461;-74
2021/11/29 05:01:49;;;;;;;8.20;2.73;;;;;;;-145.18;100.00;60484.78;5038521;28;20028;-75
2021/11/29 05:04:15;;;;;;;8.47;3.00;;;;;;;-145.18;100.00;60484.78;5031584;28;20025;-75
2021/11/29 05:06:40;;;;;;;10.90;2.40;;;;;;;-145.18;100.00;60484.78;5032144;28;20143;-75
2021/11/29 05:09:09;;;;;;;12.57;3.03;;;;;;;-145.18;100.00;60484.78;5038565;28;20493;-74
2021/11/29 05:11:35;;;;;;;6.93;2.10;;;;;;;-145.18;100.00;60484.78;5037155;28;20021;-73
2021/11/29 05:14:00;;;;;;;5.80;2.53;;;;;;;-145.18;100.00;60484.78;5038660;28;20556;-74
2021/11/29 05:16:27;;;;;;;9.37;2.40;;;;;;;-145.18;100.00;60484.78;5038180;28;20032;-73
2021/11/29 05:18:52;;;;;;;10.10;2.60;;;;;;;-145.18;100.00;60484.78;5037821;28;20485;-74
2021/11/29 05:21:18;;;;;;;7.40;2.83;;;;;;;-145.18;100.00;60484.78;5030234;28;20276;-73
2021/11/29 05:23:44;;;;;;;10.00;2.87;;;;;;;-145.18;100.00;60484.78;5036556;28;20290;-73
2021/11/29 05:26:10;;;;;;;8.10;3.30;;;;;;;-145.18;100.00;60484.78;5038414;28;20029;-76
2021/11/29 05:28:35;;;;;;;11.57;3.23;;;;;;;-145.18;100.00;60484.78;5037036;28;20371;-73
2021/11/29 05:31:00;;;;;;;12.13;3.57;;;;;;;-145.18;100.00;60484.78;5043191;28;20036;-74
2021/11/29 05:33:26;;;;;;;6.03;2.67;;;;;;;-145.18;100.00;60484.78;5042231;28;20077;-73
2021/11/29 05:35:51;;;;;;;11.33;3.13;;;;;;;-145.18;100.00;60484.78;5037109;28;20021;-74
2021/11/29 05:38:17;;;;;;;12.97;3.07;;;;;;;-145.18;100.00;60484.78;5029006;28;20033;-74
2021/11/29 05:40:42;;;;;;;9.57;3.37;;;;;;;-145.18;100.00;60484.78;5038138;28;20036;-74
2021/11/29 05:43:08;;;;;;;10.80;3.30;;;;;;;-145.18;100.00;60484.78;5036828;28;20277;-74
2021/11/29 05:45:34;;;;;;;12.43;2.90;;;;;;;-145.18;100.00;60484.78;5037460;28;20049;-73
2021/11/29 05:47:59;;;;;;;9.57;3.00;;;;;;;-145.18;100.00;60484.78;5038153;28;20017;-73
2021/11/29 05:50:25;;;;;;;11.60;3.20;;;;;;;-145.18;100.00;60484.78;5036755;28;20266;-74
2021/11/29 05:52:50;;;;;;;11.97;4.27;;;;;;;-145.18;100.00;60484.78;5037216;28;20289;-74
2021/11/29 05:55:16;;;;;;;9.67;2.97;;;;;;;-145.18;100.00;60484.78;5036130;28;20277;-74
2021/11/29 05:57:43;;;;;;;9.50;2.40;;;;;;;-145.18;100.00;60484.78;5037045;28;20078;-74
2021/11/29 06:00:12;;;;;;;6.87;2.00;;;;;;;-145.18;100.00;60484.78;5037142;28;20278;-74
2021/11/29 06:02:39;;;;;;;5.93;2.13;;;;;;;-145.18;100.00;60484.78;5029107;28;20643;-73
2021/11/29 06:05:05;;;;;;;7.87;2.37;;;;;;;-145.18;100.00;60484.78;5029797;28;20852;-73
2021/11/29 06:07:31;;;;;;;8.57;2.20;;;;;;;-145.18;100.00;60484.78;5038457;28;20302;-74
2021/11/29 06:09:56;;;;;;;7.70;2.07;;;;;;;-145.18;100.00;60484.78;5037521;28;20299;-73
2021/11/29 06:12:22;;;;;;;6.63;2.47;;;;;;;-145.18;100.00;60484.78;5037214;28;20033;-73
2021/11/29 06:14:47;;;;;;;5.37;1.97;;;;;;;-145.18;100.00;60484.78;5038404;28;20473;-73
2021/11/29 06:17:13;;;;;;;6.43;2.20;;;;;;;-145.18;100.00;60484.78;5025793;28;20083;-73
2021/11/29 06:19:38;;;;;;;7.40;2.37;;;;;;;-145.18;100.00;60484.78;5036826;28;20033;-73
2021/11/29 06:22:04;;;;;;;8.20;2.97;;;;;;;-145.18;100.00;60484.78;5037610;28;20551;-73
2021/11/29 06:24:29;;;;;;;8.67;2.53;;;;;;;-145.18;100.00;60484.78;5036654;28;20029;-73
2021/11/29 06:26:54;;;;;;;14.47;3.53;;;;;;;-145.18;100.00;60484.78;5035854;28;20210;-73
2021/11/29 06:29:20;;;;;;;11.13;4.90;;;;;;;-145.18;100.00;60484.78;5036258;28;20084;-73
2021/11/29 06:31:45;;;;;;;8.07;2.70;;;;;;;-145.18;100.00;60484.78;5036912;28;20032;-74
2021/11/29 06:34:11;;;;;;;5.20;2.37;;;;;;;-145.18;100.00;60484.78;5037029;28;20455;-73
2021/11/29 06:36:36;;;;;;;7.20;2.77;;;;;;;-145.18;100.00;60484.78;5039997;28;20518;-73
2021/11/29 06:39:03;;;;;;;8.80;2.07;;;;;;;-145.18;100.00;60484.78;5041353;28;20551;-74
2021/11/29 06:41:28;;;;;;;8.27;2.60;;;;;;;-145.18;100.00;60484.78;5034303;28;20109;-72
2021/11/29 06:43:55;;;;;;;5.90;2.33;;;;;;;-145.18;100.00;60484.78;5039886;28;20330;-74
2021/11/29 06:46:20;;;;;;;10.80;2.47;;;;;;;-145.18;100.00;60484.78;5040042;28;20468;-74
2021/11/29 06:48:46;;;;;;;11.40;2.70;;;;;;;-145.18;100.00;60484.78;5040510;28;20303;-73
2021/11/29 06:51:12;;;;;;;9.47;2.80;;;;;;;-145.18;100.00;60484.78;5039506;28;20271;-73
2021/11/29 06:53:40;;;;;;;7.60;2.33;;;;;;;-145.18;100.00;60484.78;5040471;28;20526;-74
2021/11/29 06:56:05;;;;;;;9.10;3.33;;;;;;;-145.18;100.00;60484.78;5040600;28;20286;-73
2021/11/29 06:58:31;;;;;;;7.53;2.60;;;;;;;-145.18;100.00;60484.78;5041020;28;20799;-74
2021/11/29 07:00:56;;;;;;;11.10;3.67;;;;;;;-145.18;100.00;60484.78;5039043;28;20255;-74
2021/11/29 07:03:22;;;;;;;10.10;3.00;;;;;;;-145.18;100.00;60484.78;5033698;28;20102;-75
2021/11/29 07:05:51;;;;;;;12.73;3.20;;;;;;;-145.18;100.00;60484.78;5040569;28;20107;-75
2021/11/29 07:08:17;;;;;;;19.23;4.93;;;;;;;-145.18;100.00;60484.78;5040943;28;20288;-75
2021/11/29 07:10:42;;;;;;;10.33;3.43;;;;;;;-145.18;100.00;60484.78;5039907;28;20595;-75
2021/11/29 07:13:12;;;;;;;16.33;3.93;;;;;;;-145.18;100.00;60484.78;5040007;28;20554;-74
2021/11/29 07:15:39;;;;;;;11.17;4.23;;;;;;;-145.18;100.00;60484.78;5040404;28;20078;-73
2021/11/29 07:18:06;;;;;;;10.47;4.10;;;;;;;-145.18;100.00;60484.78;5037777;28;20291;-73
2021/11/29 07:20:32;;;;;;;17.40;4.80;;;;;;;-145.18;100.00;60484.78;5040832;28;20334;-73
2021/11/29 07:22:59;;;;;;;13.57;4.23;;;;;;;-145.18;100.00;60484.78;5038379;28;20275;-73
2021/11/29 07:25:24;;;;;;;12.70;4.20;;;;;;;-145.18;100.00;60484.78;5039103;28;20283;-74
2021/11/29 07:27:50;;;;;;;14.97;5.23;;;;;;;-145.18;100.00;60484.78;5037012;28;20289;-74
2021/11/29 07:30:18;;;;;;;18.30;4.73;;;;;;;-145.18;100.00;60484.78;5034682;28;20485;-73
2021/11/29 07:32:44;;;;;;;16.97;5.23;;;;;;;-145.18;100.00;60484.78;5034608;28;20078;-73
2021/11/29 07:35:10;;;;;;;28.23;6.03;;;;;;;-145.18;100.00;60484.78;5033461;28;20287;-74
2021/11/29 07:37:36;;;;;;;17.30;4.80;;;;;;;-145.18;100.00;60484.78;5037582;28;20382;-74
2021/11/29 07:40:03;;;;;;;11.67;4.50;;;;;;;-145.18;100.00;60484.78;5039112;28;20460;-74
2021/11/29 07:42:30;;;;;;;17.70;5.23;;;;;;;-145.18;100.00;60484.78;5039121;28;20086;-74
2021/11/29 07:44:55;;;;;;;15.03;5.17;;;;;;;-145.18;100.00;60484.78;5039893;28;20294;-73
2021/11/29 07:47:22;;;;;;;8.87;4.23;;;;;;;-145.18;100.00;60484.78;5039750;28;20268;-74
2021/11/29 07:49:48;;;;;;;16.13;6.00;;;;;;;-145.18;100.00;60484.78;5040765;28;20028;-74
2021/11/29 07:52:13;;;;;;;11.57;5.07;;;;;;;-145.18;100.00;60484.78;5040033;28;20850;-74
2021/11/29 07:54:40;;;;;;;16.97;5.10;;;;;;;-145.18;100.00;60484.78;5039639;28;20332;-73
2021/11/29 07:57:06;;;;;;;14.53;4.90;;;;;;;-145.18;100.00;60484.78;5039920;28;20049;-73
2021/11/29 07:59:31;;;;;;;13.67;5.93;;;;;;;-145.18;100.00;60484.78;5040479;28;20301;-75
2021/11/29 08:01:58;;;;;;;18.77;5.77;;;;;;;-145.18;100.00;60484.78;5034705;28;20045;-74
2021/11/29 08:04:25;;;;;;;17.20;5.87;;;;;;;-145.18;100.00;60484.78;5031848;28;20033;-74
2021/11/29 08:06:51;;;;;;;15.70;5.30;;;;;;;-145.18;100.00;60484.78;5040329;28;20299;-75
2021/11/29 08:09:16;;;;;;;23.43;6.83;;;;;;;-145.18;100.00;60484.78;5040593;28;20264;-73
2021/11/29 08:11:42;;;;;;;14.67;5.87;;;;;;;-145.18;100.00;60484.78;5039842;28;20276;-74
2021/11/29 08:14:07;;;;;;;19.87;6.57;;;;;;;-145.18;100.00;60484.78;5035544;28;20393;-74
2021/11/29 08:16:33;;;;;;;18.67;6.47;;;;;;;-145.18;100.00;60484.78;5039381;28;20025;-73
2021/11/29 08:18:58;;;;;;;18.67;7.13;;;;;;;-145.18;100.00;60484.78;5039976;28;20029;-74
2021/11/29 08:21:23;;;;;;;21.00;6.67;;;;;;;-145.18;100.00;60484.78;5036827;28;20025;-73
2021/11/29 08:23:49;;;;;;;18.07;5.97;;;;;;;-145.18;100.00;60484.78;5034582;28;20081;-73
2021/11/29 08:26:14;;;;;;;27.70;7.00;;;;;;;-145.18;100.00;60484.78;5036853;28;20052;-73
2021/11/29 08:28:40;;;;;;;17.67;6.83;;;;;;;-145.18;100.00;60484.78;5038713;28;20416;-73
2021/11/29 08:31:05;;;;;;;18.00;6.03;;;;;;;-145.18;100.00;60484.78;5038114;28;20043;-73
2021/11/29 08:33:31;;;;;;;19.17;5.80;;;;;;;-145.18;100.00;60484.78;5036188;28;20445;-75
2021/11/29 08:35:56;;;;;;;15.87;5.67;;;;;;;-145.18;100.00;60484.78;5041779;28;20063;-73
2021/11/29 08:38:22;;;;;;;17.23;5.47;;;;;;;-145.18;100.00;60484.78;5039155;28;20025;-73
2021/11/29 08:40:49;;;;;;;14.47;6.17;;;;;;;-145.18;100.00;60484.78;5038844;28;20056;-74
2021/11/29 08:43:16;;;;;;;15.37;5.07;;;;;;;-145.18;100.00;60484.78;5039733;28;20055;-72
2021/11/29 08:45:43;;;;;;;12.77;5.10;;;;;;;-145.18;100.00;60484.78;5038851;28;20760;-73
2021/11/29 08:48:11;;;;;;;15.10;5.27;;;;;;;-145.18;100.00;60484.78;5039608;28;20302;-73
2021/11/29 08:50:39;;;;;;;14.97;5.50;;;;;;;-145.18;100.00;60484.78;5035059;28;20570;-73
2021/11/29 08:53:09;;;;;;;13.60;5.47;;;;;;;-145.18;100.00;60484.78;5045308;28;20560;-74
2021/11/29 08:55:35;;;;;;;14.50;5.30;;;;;;;-145.18;100.00;60484.78;5038746;28;20708;-73
2021/11/29 08:58:03;;;;;;;14.50;5.47;;;;;;;-145.18;100.00;60484.78;5036884;28;20309;-74
2021/11/29 09:00:29;;;;;;;15.87;5.07;;;;;;;-145.18;100.00;60484.78;5036678;28;20276;-74
2021/11/29 09:02:55;;;;;;;14.40;5.77;;;;;;;-145.18;100.00;60484.78;5034452;28;20879;-73
2021/11/29 09:05:22;;;;;;;16.57;6.00;;;;;;;-145.18;100.00;60484.78;5036591;28;20287;-77
2021/11/29 09:07:48;;;;;;;14.83;5.57;;;;;;;-145.18;100.00;60484.78;5029344;28;20311;-73
2021/11/29 09:10:14;;;;;;;15.90;6.17;;;;;;;-145.18;100.00;60484.78;5038026;28;20623;-74
2021/11/29 09:12:40;;;;;;;17.53;6.07;;;;;;;-145.18;100.00;60484.78;5038039;28;20331;-73
2021/11/29 09:15:08;;;;;;;14.93;5.77;;;;;;;-145.18;100.00;60484.78;5038318;28;20097;-74
2021/11/29 09:17:34;;;;;;;15.93;6.37;;;;;;;-145.18;100.00;60484.78;5036619;28;20283;-73
2021/11/29 09:19:59;;;;;;;14.13;5.40;;;;;;;-145.18;100.00;60484.78;5037250;28;20378;-74
2021/11/29 09:22:25;;;;;;;17.47;6.73;;;;;;;-145.18;100.00;60484.78;5038298;28;20292;-74
2021/11/29 09:24:51;;;;;;;15.97;5.13;;;;;;;-145.18;100.00;60484.78;5038291;28;20273;-74
2021/11/29 09:27:16;;;;;;;14.80;4.60;;;;;;;-145.18;100.00;60484.78;5034531;28;20082;-74
2021/11/29 09:29:45;;;;;;;15.73;6.33;;;;;;;-145.18;100.00;60484.78;5038094;28;20071;-73
2021/11/29 09:32:12;;;;;;;17.10;6.40;;;;;;;-145.18;100.00;60484.78;5036600;28;20032;-74
2021/11/29 09:34:37;;;;;;;15.23;5.70;;;;;;;-145.18;100.00;60484.78;5036239;28;20762;-75
2021/11/29 09:37:02;;;;;;;17.70;5.87;;;;;;;-145.18;100.00;60484.78;5036394;28;20283;-77
2021/11/29 09:39:28;;;;;;;15.43;6.63;;;;;;;-145.18;100.00;60484.78;5031002;28;20095;-77
2021/11/29 09:41:54;;;;;;;17.40;6.13;;;;;;;-145.18;100.00;60484.78;5038651;28;20036;-77
2021/11/29 09:44:19;;;;;;;15.73;6.70;;;;;;;-145.18;100.00;60484.78;5038548;28;20021;-73
2021/11/29 09:46:45;;;;;;;12.23;5.43;;;;;;;-145.18;100.00;60484.78;5029008;28;20025;-74
2021/11/29 09:49:11;;;;;;;14.80;5.63;;;;;;;-145.18;100.00;60484.78;5038074;28;20044;-74
2021/11/29 09:51:37;;;;;;;14.63;5.33;;;;;;;-145.18;100.00;60484.78;5035866;28;20400;-74
2021/11/29 09:54:04;;;;;;;11.83;4.53;;;;;;;-145.18;100.00;60484.78;5038294;28;20032;-74
2021/11/29 09:56:29;;;;;;;13.90;5.93;;;;;;;-145.18;100.00;60484.78;5036686;28;20040;-74
2021/11/29 09:58:57;;;;;;;14.97;5.20;;;;;;;-145.18;100.00;60484.78;5035672;28;20307;-73
2021/11/29 10:01:22;;;;;;;12.50;5.17;;;;;;;-145.18;100.00;60484.78;5036512;28;20067;-73
2021/11/29 10:03:48;;;;;;;12.07;4.77;;;;;;;-145.18;100.00;60484.78;5037521;28;20874;-74
2021/11/29 10:06:13;;;;;;;12.07;4.60;;;;;;;-145.18;100.00;60484.78;5038381;28;20277;-74
2021/11/29 10:08:39;;;;;;;11.67;4.30;;;;;;;-145.18;100.00;60484.78;5036416;28;20033;-74
2021/11/29 10:11:12;;;;;;;11.33;4.93;;;;;;;-145.18;100.00;60484.78;5040888;28;20048;-74
2021/11/29 10:13:49;;;;;;;13.05;5.15;;;;;;;-145.18;100.00;60484.78;5028720;28;20306;-73
2021/11/29 10:16:34;;;;;;;12.77;4.67;;;;;;;-145.18;100.00;60484.78;5041489;28;20444;-74
2021/11/29 10:19:01;;;;;;;12.80;4.43;;;;;;;-145.18;100.00;60484.78;5040575;28;20283;-73
2021/11/29 10:21:26;;;;;;;14.93;4.23;;;;;;;-145.18;100.00;60484.78;5040695;28;20554;-73
2021/11/29 10:23:54;;;;;;;14.43;4.00;;;;;;;-145.18;100.00;60484.78;5041307;28;20279;-73
2021/11/29 10:26:33;;;;;;;11.90;4.47;;;;;;;-145.18;100.00;60484.78;5041527;28;20035;-73
2021/11/29 10:29:01;;;;;;;12.60;4.77;;;;;;;-145.18;100.00;60484.78;5038717;28;20329;-73
2021/11/29 10:31:35;;;;;;;11.00;4.40;;;;;;;-145.18;100.00;60484.78;5039083;28;20968;-74
2021/11/29 10:34:07;;;;;;;15.43;4.87;;;;;;;-145.18;100.00;60484.78;5035839;28;20283;-74
2021/11/29 10:36:37;;;;;;;11.90;4.45;;;;;;;-145.18;100.00;60484.78;5041201;28;20275;-74
2021/11/29 10:39:10;;;;;;;13.33;4.80;;;;;;;-145.18;100.00;60484.78;5022258;28;20072;-73
2021/11/29 10:41:39;;;;;;;11.43;4.17;;;;;;;-145.18;100.00;60484.78;5046689;28;20283;-74
2021/11/29 10:44:18;;;;;;;13.80;4.67;;;;;;;-145.18;100.00;60484.78;5041662;28;20262;-73
2021/11/29 10:46:46;;;;;;;10.60;3.87;;;;;;;-145.18;100.00;60484.78;5041625;28;20281;-73
2021/11/29 10:49:14;;;;;;;9.10;3.47;;;;;;;-145.18;100.00;60484.78;5041794;28;20696;-73
2021/11/29 10:51:42;;;;;;;10.53;3.97;;;;;;;-145.18;100.00;60484.78;5038088;28;20263;-73
2021/11/29 10:54:12;;;;;;;9.30;3.83;;;;;;;-145.18;100.00;60484.78;5040168;28;20285;-73
2021/11/29 10:56:39;;;;;;;8.13;3.30;;;;;;;-145.18;100.00;60484.78;5034386;28;20622;-73
2021/11/29 10:59:08;;;;;;;9.50;3.43;;;;;;;-145.18;100.00;60484.78;5037238;28;20287;-73
2021/11/29 11:01:51;;;;;;;6.80;2.93;;;;;;;-145.18;100.00;60484.78;5036302;28;20283;-75
2021/11/29 11:04:18;;;;;;;;;;;;;;;-145.18;100.00;60484.78;5000634;28;20563;-72